createdAt,value
2018-03-23T00:00:08.791Z,880.16
2018-03-23T00:00:47.773Z,880.10
2018-03-23T00:01:47.765Z,880.14
2018-03-23T00:03:08.739Z,880.13
2018-03-23T00:03:47.722Z,880.13
2018-03-23T00:05:08.713Z,880.11
2018-03-23T00:05:47.685Z,880.11
2018-03-23T00:06:47.676Z,880.06
2018-03-23T00:08:08.663Z,880.07
2018-03-23T00:08:47.634Z,880.07
2018-03-23T00:10:08.618Z,880.08
2018-03-23T00:10:47.599Z,880.09
2018-03-23T00:11:47.582Z,880.08
2018-03-23T00:13:08.566Z,880.05
2018-03-23T00:13:47.552Z,880.07
2018-03-23T00:15:08.534Z,880.09
2018-03-23T00:15:47.520Z,880.09
2018-03-23T00:16:47.499Z,880.06
2018-03-23T00:18:08.487Z,880.09
2018-03-23T00:18:47.465Z,880.05
2018-03-23T00:20:08.456Z,880.10
2018-03-23T00:20:47.433Z,880.09
2018-03-23T00:21:47.415Z,880.07
2018-03-23T00:23:08.406Z,880.06
2018-03-23T00:23:47.384Z,880.08
2018-03-23T00:25:08.365Z,880.03
2018-03-23T00:25:47.347Z,879.99
2018-03-23T00:26:47.328Z,879.97
2018-03-23T00:28:08.316Z,879.98
2018-03-23T00:28:47.299Z,879.97
2018-03-23T00:30:08.284Z,879.95
2018-03-23T00:30:47.264Z,879.92
2018-03-23T00:31:47.247Z,879.92
2018-03-23T00:33:08.232Z,879.89
2018-03-23T00:33:47.208Z,879.93
2018-03-23T00:35:08.194Z,879.92
2018-03-23T00:35:47.177Z,879.92
2018-03-23T00:36:47.158Z,879.94
2018-03-23T00:38:08.141Z,879.93
2018-03-23T00:38:47.124Z,879.90
2018-03-23T00:40:08.108Z,879.89
2018-03-23T00:40:47.095Z,879.88
2018-03-23T00:41:47.078Z,879.88
2018-03-23T00:43:08.060Z,879.83
2018-03-23T00:43:47.042Z,879.89
2018-03-23T00:45:08.026Z,879.81
2018-03-23T00:45:47.011Z,879.86
2018-03-23T00:46:46.988Z,879.86
2018-03-23T00:48:07.975Z,879.85
2018-03-23T00:48:46.967Z,879.84
2018-03-23T00:50:07.943Z,879.81
2018-03-23T00:50:46.923Z,879.81
2018-03-23T00:51:46.902Z,879.79
2018-03-23T00:53:07.893Z,879.78
2018-03-23T00:53:46.876Z,879.79
2018-03-23T00:55:07.857Z,879.80
2018-03-23T00:55:46.839Z,879.75
2018-03-23T00:56:46.823Z,879.71
2018-03-23T00:58:07.810Z,879.72
2018-03-23T00:58:46.783Z,879.66
2018-03-23T01:00:07.774Z,879.67
2018-03-23T01:00:46.753Z,879.63
2018-03-23T01:01:46.741Z,879.64
2018-03-23T01:03:07.722Z,879.62
2018-03-23T01:03:46.702Z,879.58
2018-03-23T01:05:07.689Z,879.58
2018-03-23T01:05:46.673Z,879.61
2018-03-23T01:06:46.650Z,879.63
2018-03-23T01:08:07.632Z,879.63
2018-03-23T01:08:46.612Z,879.64
2018-03-23T01:10:07.601Z,879.63
2018-03-23T01:10:46.586Z,879.61
2018-03-23T01:11:46.562Z,879.57
2018-03-23T01:13:07.551Z,879.59
2018-03-23T01:13:46.531Z,879.57
2018-03-23T01:15:07.516Z,879.57
2018-03-23T01:15:46.502Z,879.60
2018-03-23T01:16:46.487Z,879.60
2018-03-23T01:18:07.467Z,879.57
2018-03-23T01:18:46.444Z,879.55
2018-03-23T01:20:07.431Z,879.53
2018-03-23T01:20:46.411Z,879.56
2018-03-23T01:21:46.398Z,879.57
2018-03-23T01:23:07.379Z,879.59
2018-03-23T01:23:46.356Z,879.58
2018-03-23T01:25:07.349Z,879.57
2018-03-23T01:25:46.324Z,879.54
2018-03-23T01:26:46.312Z,879.53
2018-03-23T01:28:07.290Z,879.53
2018-03-23T01:28:46.279Z,879.50
2018-03-23T01:30:07.260Z,879.51
2018-03-23T01:30:46.247Z,879.50
2018-03-23T01:31:46.227Z,879.48
2018-03-23T01:33:07.217Z,879.51
2018-03-23T01:33:46.189Z,879.47
2018-03-23T01:35:07.173Z,879.47
2018-03-23T01:35:46.156Z,879.51
2018-03-23T01:36:46.141Z,879.47
2018-03-23T01:38:07.125Z,879.51
2018-03-23T01:38:46.098Z,879.50
2018-03-23T01:40:07.089Z,879.55
2018-03-23T01:40:46.070Z,879.50
2018-03-23T01:41:46.051Z,879.53
2018-03-23T01:43:07.032Z,879.49
2018-03-23T01:43:46.015Z,879.47
2018-03-23T01:45:07.002Z,879.50
2018-03-23T01:45:45.986Z,879.48
2018-03-23T01:46:45.966Z,879.51
2018-03-23T01:48:06.952Z,879.54
2018-03-23T01:48:45.931Z,879.53
2018-03-23T01:50:06.922Z,879.52
2018-03-23T01:50:45.894Z,879.53
2018-03-23T01:51:45.882Z,879.48
2018-03-23T01:53:06.867Z,879.44
2018-03-23T01:53:45.853Z,879.42
2018-03-23T01:55:06.833Z,879.38
2018-03-23T01:55:45.813Z,879.34
2018-03-23T01:56:45.801Z,879.35
2018-03-23T01:58:06.785Z,879.39
2018-03-23T01:58:45.759Z,879.39
2018-03-23T02:00:06.749Z,879.39
2018-03-23T02:00:45.730Z,879.32
2018-03-23T02:01:45.713Z,879.32
2018-03-23T02:03:06.694Z,879.29
2018-03-23T02:03:45.673Z,879.25
2018-03-23T02:05:06.658Z,879.27
2018-03-23T02:05:45.645Z,879.25
2018-03-23T02:06:45.626Z,879.22
2018-03-23T02:08:06.608Z,879.18
2018-03-23T02:08:45.593Z,879.21
2018-03-23T02:10:06.576Z,879.22
2018-03-23T02:10:45.563Z,879.18
2018-03-23T02:11:45.546Z,879.20
2018-03-23T02:13:06.539Z,879.16
2018-03-23T02:13:45.511Z,879.13
2018-03-23T02:15:06.498Z,879.11
2018-03-23T02:15:45.477Z,879.15
2018-03-23T02:16:45.461Z,879.12
2018-03-23T02:18:06.444Z,879.10
2018-03-23T02:18:45.421Z,879.07
2018-03-23T02:20:06.408Z,879.05
2018-03-23T02:20:45.390Z,879.05
2018-03-23T02:21:45.377Z,879.07
2018-03-23T02:23:06.357Z,879.06
2018-03-23T02:23:45.341Z,879.07
2018-03-23T02:25:06.326Z,879.08
2018-03-23T02:25:45.305Z,879.12
2018-03-23T02:26:45.294Z,879.12
2018-03-23T02:28:06.275Z,879.07
2018-03-23T02:28:45.257Z,879.04
2018-03-23T02:30:06.241Z,879.00
2018-03-23T02:30:45.218Z,879.02
2018-03-23T02:31:45.198Z,879.01
2018-03-23T02:33:06.198Z,879.01
2018-03-23T02:33:45.169Z,879.03
2018-03-23T02:35:06.162Z,879.03
2018-03-23T02:35:45.134Z,878.98
2018-03-23T02:36:45.119Z,878.95
2018-03-23T02:38:06.106Z,878.97
2018-03-23T02:38:45.087Z,878.90
2018-03-23T02:40:06.069Z,878.88
2018-03-23T02:40:45.055Z,878.93
2018-03-23T02:41:45.030Z,878.84
2018-03-23T02:43:06.017Z,878.88
2018-03-23T02:43:44.997Z,878.83
2018-03-23T02:45:05.994Z,878.84
2018-03-23T02:45:44.957Z,878.85
2018-03-23T02:46:44.944Z,878.87
2018-03-23T02:48:05.932Z,878.90
2018-03-23T02:48:44.916Z,878.90
2018-03-23T02:50:05.901Z,878.90
2018-03-23T02:50:44.885Z,878.87
2018-03-23T02:51:44.860Z,878.86
2018-03-23T02:53:05.847Z,878.89
2018-03-23T02:53:44.826Z,878.88
2018-03-23T02:55:05.816Z,878.86
2018-03-23T02:55:44.799Z,878.83
2018-03-23T02:56:44.782Z,878.87
2018-03-23T02:58:05.760Z,878.87
2018-03-23T02:58:44.741Z,878.90
2018-03-23T03:00:05.727Z,878.86
2018-03-23T03:00:44.712Z,878.84
2018-03-23T03:01:44.693Z,878.82
2018-03-23T03:03:05.684Z,878.83
2018-03-23T03:03:44.656Z,878.80
2018-03-23T03:05:05.639Z,878.83
2018-03-23T03:05:44.623Z,878.79
2018-03-23T03:06:44.604Z,878.80
2018-03-23T03:08:05.590Z,878.79
2018-03-23T03:08:44.567Z,878.81
2018-03-23T03:10:05.558Z,878.78
2018-03-23T03:10:44.533Z,878.75
2018-03-23T03:11:44.512Z,878.76
2018-03-23T03:13:05.507Z,878.75
2018-03-23T03:13:44.484Z,878.78
2018-03-23T03:15:05.472Z,878.76
2018-03-23T03:15:44.451Z,878.76
2018-03-23T03:16:44.432Z,878.77
2018-03-23T03:18:05.426Z,878.77
2018-03-23T03:18:44.397Z,878.76
2018-03-23T03:20:05.381Z,878.76
2018-03-23T03:20:44.372Z,878.75
2018-03-23T03:21:44.346Z,878.69
2018-03-23T03:23:05.329Z,878.73
2018-03-23T03:23:44.309Z,878.70
2018-03-23T03:25:05.297Z,878.73
2018-03-23T03:25:44.272Z,878.68
2018-03-23T03:26:44.259Z,878.69
2018-03-23T03:28:05.243Z,878.69
2018-03-23T03:28:44.233Z,878.70
2018-03-23T03:30:05.214Z,878.68
2018-03-23T03:30:44.199Z,878.69
2018-03-23T03:31:44.177Z,878.66
2018-03-23T03:33:05.161Z,878.68
2018-03-23T03:33:44.145Z,878.70
2018-03-23T03:35:05.126Z,878.69
2018-03-23T03:35:44.105Z,878.66
2018-03-23T03:36:44.088Z,878.67
2018-03-23T03:38:05.078Z,878.69
2018-03-23T03:38:44.051Z,878.67
2018-03-23T03:40:05.042Z,878.69
2018-03-23T03:40:44.019Z,878.67
2018-03-23T03:41:44.004Z,878.67
2018-03-23T03:43:04.990Z,878.65
2018-03-23T03:43:43.972Z,878.70
2018-03-23T03:45:04.961Z,878.70
2018-03-23T03:45:43.934Z,878.67
2018-03-23T03:46:43.918Z,878.70
2018-03-23T03:48:04.903Z,878.67
2018-03-23T03:48:43.881Z,878.71
2018-03-23T03:50:04.865Z,878.70
2018-03-23T03:50:43.849Z,878.65
2018-03-23T03:51:43.827Z,878.66
2018-03-23T03:53:04.826Z,878.68
2018-03-23T03:53:43.804Z,878.66
2018-03-23T03:55:04.784Z,878.67
2018-03-23T03:55:43.766Z,878.62
2018-03-23T03:56:43.748Z,878.64
2018-03-23T03:58:04.732Z,878.68
2018-03-23T03:58:43.712Z,878.65
2018-03-23T04:00:04.704Z,878.67
2018-03-23T04:00:43.681Z,878.66
2018-03-23T04:01:43.659Z,878.63
2018-03-23T04:03:04.640Z,878.65
2018-03-23T04:03:43.629Z,878.63
2018-03-23T04:05:04.626Z,878.66
2018-03-23T04:05:43.593Z,878.61
2018-03-23T04:06:43.591Z,878.58
2018-03-23T04:08:04.562Z,878.58
2018-03-23T04:08:43.586Z,878.58
2018-03-23T04:10:04.529Z,878.58
2018-03-23T04:10:43.505Z,878.60
2018-03-23T04:11:43.493Z,878.60
2018-03-23T04:13:04.477Z,878.58
2018-03-23T04:13:43.457Z,878.62
2018-03-23T04:15:04.441Z,878.56
2018-03-23T04:15:43.419Z,878.59
2018-03-23T04:16:43.404Z,878.54
2018-03-23T04:18:04.390Z,878.55
2018-03-23T04:18:43.370Z,878.53
2018-03-23T04:20:04.356Z,878.51
2018-03-23T04:20:43.335Z,878.50
2018-03-23T04:21:43.321Z,878.54
2018-03-23T04:23:04.302Z,878.49
2018-03-23T04:23:43.282Z,878.53
2018-03-23T04:25:04.265Z,878.51
2018-03-23T04:25:43.249Z,878.49
2018-03-23T04:26:43.232Z,878.52
2018-03-23T04:28:04.223Z,878.54
2018-03-23T04:28:43.207Z,878.51
2018-03-23T04:30:04.179Z,878.51
2018-03-23T04:30:43.169Z,878.53
2018-03-23T04:31:43.142Z,878.51
2018-03-23T04:33:04.136Z,878.50
2018-03-23T04:33:43.110Z,878.54
2018-03-23T04:35:04.098Z,878.53
2018-03-23T04:35:43.080Z,878.51
2018-03-23T04:36:43.053Z,878.56
2018-03-23T04:38:04.043Z,878.54
2018-03-23T04:38:43.018Z,878.54
2018-03-23T04:40:04.010Z,878.53
2018-03-23T04:40:42.992Z,878.53
2018-03-23T04:41:42.976Z,878.51
2018-03-23T04:43:03.965Z,878.54
2018-03-23T04:43:42.942Z,878.52
2018-03-23T04:45:03.928Z,878.51
2018-03-23T04:45:42.909Z,878.52
2018-03-23T04:46:42.891Z,878.49
2018-03-23T04:48:03.878Z,878.51
2018-03-23T04:48:42.853Z,878.48
2018-03-23T04:50:03.837Z,878.43
2018-03-23T04:50:42.814Z,878.42
2018-03-23T04:51:42.803Z,878.45
2018-03-23T04:53:03.783Z,878.43
2018-03-23T04:53:42.770Z,878.41
2018-03-23T04:55:03.747Z,878.36
2018-03-23T04:55:42.731Z,878.36
2018-03-23T04:56:42.718Z,878.31
2018-03-23T04:58:03.707Z,878.27
2018-03-23T04:58:42.686Z,878.31
2018-03-23T05:00:03.667Z,878.27
2018-03-23T05:00:42.650Z,878.29
2018-03-23T05:01:42.624Z,878.27
2018-03-23T05:03:03.624Z,878.29
2018-03-23T05:03:42.598Z,878.31
2018-03-23T05:05:03.583Z,878.29
2018-03-23T05:05:42.560Z,878.28
2018-03-23T05:06:42.539Z,878.28
2018-03-23T05:08:03.609Z,878.28
2018-03-23T05:08:42.509Z,878.27
2018-03-23T05:10:03.502Z,878.30
2018-03-23T05:10:42.476Z,878.29
2018-03-23T05:11:42.464Z,878.31
2018-03-23T05:13:03.443Z,878.30
2018-03-23T05:13:42.423Z,878.29
2018-03-23T05:15:03.406Z,878.31
2018-03-23T05:15:42.392Z,878.31
2018-03-23T05:16:42.376Z,878.30
2018-03-23T05:18:03.362Z,878.29
2018-03-23T05:18:42.343Z,878.30
2018-03-23T05:20:03.323Z,878.31
2018-03-23T05:20:42.311Z,878.30
2018-03-23T05:21:42.288Z,878.33
2018-03-23T05:23:03.278Z,878.34
2018-03-23T05:23:42.256Z,878.32
2018-03-23T05:25:03.308Z,878.35
2018-03-23T05:25:42.222Z,878.34
2018-03-23T05:26:42.204Z,878.37
2018-03-23T05:28:03.189Z,878.35
2018-03-23T05:28:42.170Z,878.37
2018-03-23T05:30:03.172Z,878.33
2018-03-23T05:30:42.133Z,878.37
2018-03-23T05:31:42.122Z,878.38
2018-03-23T05:33:03.104Z,878.38
2018-03-23T05:33:42.081Z,878.39
2018-03-23T05:35:03.069Z,878.39
2018-03-23T05:35:42.052Z,878.36
2018-03-23T05:36:42.040Z,878.42
2018-03-23T05:38:03.018Z,878.36
2018-03-23T05:38:42.004Z,878.39
2018-03-23T05:40:02.986Z,878.41
2018-03-23T05:40:42.002Z,878.42
2018-03-23T05:41:41.949Z,878.39
2018-03-23T05:43:02.937Z,878.41
2018-03-23T05:43:41.923Z,878.39
2018-03-23T05:45:02.905Z,878.40
2018-03-23T05:45:41.880Z,878.36
2018-03-23T05:46:41.868Z,878.41
2018-03-23T05:48:02.853Z,878.40
2018-03-23T05:48:41.832Z,878.41
2018-03-23T05:50:02.812Z,878.37
2018-03-23T05:50:41.798Z,878.42
2018-03-23T05:51:41.785Z,878.39
2018-03-23T05:53:02.771Z,878.44
2018-03-23T05:53:41.750Z,878.42
2018-03-23T05:55:02.734Z,878.42
2018-03-23T05:55:41.712Z,878.44
2018-03-23T05:56:41.694Z,878.42
2018-03-23T05:58:02.687Z,878.40
2018-03-23T05:58:41.668Z,878.40
2018-03-23T06:00:02.655Z,878.43
2018-03-23T06:00:41.632Z,878.40
2018-03-23T06:01:41.610Z,878.38
2018-03-23T06:03:02.598Z,878.40
2018-03-23T06:03:41.580Z,878.38
2018-03-23T06:05:02.567Z,878.42
2018-03-23T06:05:41.545Z,878.36
2018-03-23T06:06:41.526Z,878.35
2018-03-23T06:08:02.512Z,878.36
2018-03-23T06:08:41.491Z,878.37
2018-03-23T06:10:02.480Z,878.36
2018-03-23T06:10:41.459Z,878.37
2018-03-23T06:11:41.442Z,878.30
2018-03-23T06:13:02.433Z,878.32
2018-03-23T06:13:41.410Z,878.35
2018-03-23T06:15:02.393Z,878.35
2018-03-23T06:15:41.378Z,878.34
2018-03-23T06:16:41.361Z,878.29
2018-03-23T06:18:02.347Z,878.32
2018-03-23T06:18:41.330Z,878.29
2018-03-23T06:20:02.321Z,878.28
2018-03-23T06:20:41.296Z,878.30
2018-03-23T06:21:41.278Z,878.33
2018-03-23T06:23:02.262Z,878.31
2018-03-23T06:23:41.246Z,878.31
2018-03-23T06:25:02.236Z,878.33
2018-03-23T06:25:41.208Z,878.34
2018-03-23T06:26:41.194Z,878.33
2018-03-23T06:28:02.175Z,878.28
2018-03-23T06:28:41.161Z,878.34
2018-03-23T06:30:02.149Z,878.32
2018-03-23T06:30:41.121Z,878.31
2018-03-23T06:31:41.112Z,878.33
2018-03-23T06:33:02.107Z,878.27
2018-03-23T06:33:41.080Z,878.26
2018-03-23T06:35:02.062Z,878.28
2018-03-23T06:35:41.042Z,878.29
2018-03-23T06:36:41.030Z,878.25
2018-03-23T06:38:02.012Z,878.23
2018-03-23T06:38:40.992Z,878.24
2018-03-23T06:40:01.988Z,878.22
2018-03-23T06:40:40.961Z,878.26
2018-03-23T06:41:40.948Z,878.25
2018-03-23T06:43:01.922Z,878.25
2018-03-23T06:43:40.924Z,878.23
2018-03-23T06:45:01.896Z,878.23
2018-03-23T06:45:40.879Z,878.27
2018-03-23T06:46:40.861Z,878.25
2018-03-23T06:48:01.851Z,878.24
2018-03-23T06:48:40.828Z,878.26
2018-03-23T06:50:01.824Z,878.28
2018-03-23T06:50:40.796Z,878.32
2018-03-23T06:51:40.778Z,878.29
2018-03-23T06:53:01.767Z,878.29
2018-03-23T06:53:40.744Z,878.27
2018-03-23T06:55:01.728Z,878.29
2018-03-23T06:55:40.717Z,878.27
2018-03-23T06:56:40.695Z,878.28
2018-03-23T06:58:01.675Z,878.31
2018-03-23T06:58:40.661Z,878.32
2018-03-23T07:00:01.656Z,878.34
2018-03-23T07:00:40.631Z,878.36
2018-03-23T07:01:40.614Z,878.35
2018-03-23T07:03:01.596Z,878.36
2018-03-23T07:03:40.583Z,878.35
2018-03-23T07:05:01.568Z,878.38
2018-03-23T07:05:40.552Z,878.37
2018-03-23T07:06:40.540Z,878.35
2018-03-23T07:08:01.520Z,878.34
2018-03-23T07:08:40.500Z,878.37
2018-03-23T07:10:01.501Z,878.31
2018-03-23T07:10:40.470Z,878.34
2018-03-23T07:11:40.458Z,878.30
2018-03-23T07:13:01.444Z,878.35
2018-03-23T07:13:40.422Z,878.33
2018-03-23T07:15:01.401Z,878.33
2018-03-23T07:15:40.382Z,878.37
2018-03-23T07:16:40.368Z,878.34
2018-03-23T07:18:01.358Z,878.35
2018-03-23T07:18:40.336Z,878.36
2018-03-23T07:20:01.324Z,878.35
2018-03-23T07:20:40.304Z,878.34
2018-03-23T07:21:40.294Z,878.35
2018-03-23T07:23:01.276Z,878.30
2018-03-23T07:23:40.256Z,878.33
2018-03-23T07:25:01.244Z,878.36
2018-03-23T07:25:40.237Z,878.33
2018-03-23T07:26:40.207Z,878.32
2018-03-23T07:28:01.194Z,878.33
2018-03-23T07:28:40.180Z,878.31
2018-03-23T07:30:01.168Z,878.28
2018-03-23T07:30:40.153Z,878.31
2018-03-23T07:31:40.131Z,878.28
2018-03-23T07:33:01.121Z,878.28
2018-03-23T07:33:40.101Z,878.28
2018-03-23T07:35:01.091Z,878.27
2018-03-23T07:35:40.067Z,878.25
2018-03-23T07:36:40.048Z,878.26
2018-03-23T07:38:01.038Z,878.28
2018-03-23T07:38:40.018Z,878.27
2018-03-23T07:40:01.002Z,878.25
2018-03-23T07:40:39.983Z,878.28
2018-03-23T07:41:39.972Z,878.27
2018-03-23T07:43:00.972Z,878.29
2018-03-23T07:43:39.938Z,878.28
2018-03-23T07:45:00.926Z,878.25
2018-03-23T07:45:39.911Z,878.29
2018-03-23T07:46:39.894Z,878.26
2018-03-23T07:48:00.884Z,878.31
2018-03-23T07:48:39.862Z,878.32
2018-03-23T07:50:00.853Z,878.27
2018-03-23T07:50:39.824Z,878.31
2018-03-23T07:51:39.816Z,878.30
2018-03-23T07:53:00.800Z,878.31
2018-03-23T07:53:39.778Z,878.28
2018-03-23T07:55:00.765Z,878.28
2018-03-23T07:55:39.749Z,878.29
2018-03-23T07:56:39.740Z,878.25
2018-03-23T07:58:00.724Z,878.26
2018-03-23T07:58:39.705Z,878.24
2018-03-23T08:00:00.691Z,878.26
2018-03-23T08:00:39.676Z,878.23
2018-03-23T08:01:39.658Z,878.21
2018-03-23T08:03:00.645Z,878.21
2018-03-23T08:03:39.626Z,878.22
2018-03-23T08:05:00.619Z,878.24
2018-03-23T08:05:39.594Z,878.19
2018-03-23T08:06:39.576Z,878.20
2018-03-23T08:08:00.569Z,878.23
2018-03-23T08:08:39.547Z,878.19
2018-03-23T08:10:00.534Z,878.19
2018-03-23T08:10:39.520Z,878.17
2018-03-23T08:11:39.508Z,878.19
2018-03-23T08:13:00.491Z,878.17
2018-03-23T08:13:39.473Z,878.23
2018-03-23T08:15:00.458Z,878.20
2018-03-23T08:15:39.440Z,878.21
2018-03-23T08:16:39.430Z,878.21
2018-03-23T08:18:00.417Z,878.18
2018-03-23T08:18:39.397Z,878.18
2018-03-23T08:20:00.389Z,878.22
2018-03-23T08:20:39.376Z,878.19
2018-03-23T08:21:39.349Z,878.22
2018-03-23T08:23:00.334Z,878.16
2018-03-23T08:23:39.319Z,878.21
2018-03-23T08:25:00.309Z,878.20
2018-03-23T08:25:39.294Z,878.18
2018-03-23T08:26:39.275Z,878.19
2018-03-23T08:28:00.265Z,878.22
2018-03-23T08:28:39.251Z,878.22
2018-03-23T08:30:00.240Z,878.22
2018-03-23T08:30:39.217Z,878.17
2018-03-23T08:31:39.204Z,878.20
2018-03-23T08:33:00.192Z,878.19
2018-03-23T08:33:39.170Z,878.21
2018-03-23T08:35:00.165Z,878.21
2018-03-23T08:35:39.143Z,878.19
2018-03-23T08:36:39.130Z,878.13
2018-03-23T08:38:00.116Z,878.15
2018-03-23T08:38:39.100Z,878.15
2018-03-23T08:40:00.086Z,878.14
2018-03-23T08:40:39.077Z,878.13
2018-03-23T08:41:39.063Z,878.14
2018-03-23T08:43:00.047Z,878.13
2018-03-23T08:43:39.029Z,878.13
2018-03-23T08:45:00.087Z,878.13
2018-03-23T08:45:39.001Z,878.12
2018-03-23T08:46:38.988Z,878.13
2018-03-23T08:47:59.974Z,878.09
2018-03-23T08:48:38.958Z,878.15
2018-03-23T08:49:59.944Z,878.14
2018-03-23T08:50:38.928Z,878.11
2018-03-23T08:51:38.914Z,878.12
2018-03-23T08:52:59.906Z,878.11
2018-03-23T08:53:38.888Z,878.15
2018-03-23T08:54:59.874Z,878.11
2018-03-23T08:55:38.860Z,878.09
2018-03-23T08:56:38.844Z,878.11
2018-03-23T08:57:59.832Z,878.07
2018-03-23T08:58:38.816Z,878.10
2018-03-23T08:59:59.814Z,878.08
2018-03-23T09:00:38.787Z,878.09
2018-03-23T09:01:38.779Z,878.04
2018-03-23T09:02:59.769Z,878.04
2018-03-23T09:03:38.745Z,878.06
2018-03-23T09:04:59.736Z,878.09
2018-03-23T09:05:38.722Z,878.10
2018-03-23T09:06:38.701Z,878.08
2018-03-23T09:07:59.698Z,878.08
2018-03-23T09:08:38.676Z,878.06
2018-03-23T09:09:59.673Z,878.05
2018-03-23T09:10:38.642Z,878.08
2018-03-23T09:11:38.633Z,878.05
2018-03-23T09:12:59.629Z,878.03
2018-03-23T09:13:38.609Z,878.00
2018-03-23T09:14:59.594Z,878.01
2018-03-23T09:15:38.579Z,878.00
2018-03-23T09:16:38.626Z,877.98
2018-03-23T09:17:59.555Z,877.98
2018-03-23T09:18:38.541Z,877.99
2018-03-23T09:19:59.527Z,877.96
2018-03-23T09:20:38.500Z,877.96
2018-03-23T09:21:38.492Z,877.99
2018-03-23T09:22:59.478Z,878.00
2018-03-23T09:23:38.462Z,877.99
2018-03-23T09:24:59.456Z,878.00
2018-03-23T09:25:38.440Z,877.99
2018-03-23T09:26:38.440Z,877.95
2018-03-23T09:27:59.415Z,877.99
2018-03-23T09:28:38.397Z,877.96
2018-03-23T09:29:59.391Z,877.93
2018-03-23T09:30:38.365Z,877.93
2018-03-23T09:31:38.354Z,877.97
2018-03-23T09:32:59.347Z,877.95
2018-03-23T09:33:38.327Z,877.95
2018-03-23T09:34:59.314Z,878.00
2018-03-23T09:35:38.302Z,878.00
2018-03-23T09:36:38.282Z,877.98
2018-03-23T09:37:59.268Z,877.99
2018-03-23T09:38:38.256Z,877.96
2018-03-23T09:39:59.246Z,877.98
2018-03-23T09:40:38.229Z,877.98
2018-03-23T09:41:38.213Z,877.97
2018-03-23T09:42:59.211Z,877.92
2018-03-23T09:43:38.185Z,877.89
2018-03-23T09:44:59.172Z,877.88
2018-03-23T09:45:38.154Z,877.88
2018-03-23T09:46:38.144Z,877.88
2018-03-23T09:47:59.139Z,877.94
2018-03-23T09:48:38.124Z,877.89
2018-03-23T09:49:59.103Z,877.84
2018-03-23T09:50:38.087Z,877.79
2018-03-23T09:51:38.079Z,877.79
2018-03-23T09:52:59.062Z,877.79
2018-03-23T09:53:38.047Z,877.78
2018-03-23T09:54:59.032Z,877.88
2018-03-23T09:55:38.014Z,877.84
2018-03-23T09:56:38.012Z,877.88
2018-03-23T09:57:59.006Z,877.86
2018-03-23T09:58:37.983Z,877.87
2018-03-23T09:59:58.977Z,877.81
2018-03-23T10:00:37.994Z,877.76
2018-03-23T10:01:37.943Z,877.81
2018-03-23T10:02:58.930Z,877.83
2018-03-23T10:03:37.914Z,877.75
2018-03-23T10:04:58.908Z,877.63
2018-03-23T10:05:37.892Z,877.74
2018-03-23T10:06:37.876Z,877.75
2018-03-23T10:07:58.864Z,877.78
2018-03-23T10:08:37.851Z,877.72
2018-03-23T10:09:58.878Z,877.74
2018-03-23T10:10:37.828Z,877.72
2018-03-23T10:11:37.819Z,877.71
2018-03-23T10:12:58.811Z,877.71
2018-03-23T10:13:37.789Z,877.74
2018-03-23T10:14:58.781Z,877.63
2018-03-23T10:15:37.769Z,877.71
2018-03-23T10:16:37.752Z,877.67
2018-03-23T10:17:58.748Z,877.62
2018-03-23T10:18:37.733Z,877.59
2018-03-23T10:19:58.722Z,877.51
2018-03-23T10:20:37.712Z,877.55
2018-03-23T10:21:37.727Z,877.64
2018-03-23T10:22:58.689Z,877.63
2018-03-23T10:23:37.678Z,877.54
2018-03-23T10:24:58.672Z,877.45
2018-03-23T10:25:37.663Z,877.45
2018-03-23T10:26:37.649Z,877.42
2018-03-23T10:27:58.636Z,877.40
2018-03-23T10:28:37.624Z,877.41
2018-03-23T10:29:58.615Z,877.40
2018-03-23T10:30:37.597Z,877.41
2018-03-23T10:31:37.587Z,877.46
2018-03-23T10:32:58.586Z,877.48
2018-03-23T10:33:37.574Z,877.47
2018-03-23T10:34:58.568Z,877.52
2018-03-23T10:35:37.548Z,877.55
2018-03-23T10:36:37.536Z,877.45
2018-03-23T10:37:58.534Z,877.47
2018-03-23T10:38:37.512Z,877.51
2018-03-23T10:39:58.509Z,877.40
2018-03-23T10:40:37.493Z,877.40
2018-03-23T10:41:37.491Z,877.42
2018-03-23T10:42:58.488Z,877.41
2018-03-23T10:43:37.469Z,877.46
2018-03-23T10:44:58.459Z,877.33
2018-03-23T10:45:37.442Z,877.31
2018-03-23T10:46:37.428Z,877.33
2018-03-23T10:47:58.432Z,877.29
2018-03-23T10:48:37.414Z,877.24
2018-03-23T10:49:58.410Z,877.37
2018-03-23T10:50:37.399Z,877.40
2018-03-23T10:51:37.390Z,877.38
2018-03-23T10:52:58.388Z,877.35
2018-03-23T10:53:37.368Z,877.41
2018-03-23T10:54:58.360Z,877.35
2018-03-23T10:55:37.339Z,877.38
2018-03-23T10:56:37.332Z,877.30
2018-03-23T10:57:58.330Z,877.33
2018-03-23T10:58:37.313Z,877.36
2018-03-23T10:59:58.305Z,877.33
2018-03-23T11:00:37.300Z,877.18
2018-03-23T11:01:37.288Z,877.24
2018-03-23T11:02:58.281Z,877.17
2018-03-23T11:03:37.268Z,877.18
2018-03-23T11:04:58.270Z,877.14
2018-03-23T11:05:37.242Z,877.10
2018-03-23T11:06:37.231Z,877.27
2018-03-23T11:07:58.228Z,877.22
2018-03-23T11:08:37.214Z,877.18
2018-03-23T11:09:58.210Z,877.19
2018-03-23T11:10:37.195Z,877.16
2018-03-23T11:11:37.184Z,877.14
2018-03-23T11:12:58.193Z,877.15
2018-03-23T11:13:37.174Z,877.12
2018-03-23T11:14:58.168Z,877.10
2018-03-23T11:15:37.162Z,877.14
2018-03-23T11:16:37.149Z,877.00
2018-03-23T11:17:58.169Z,877.09
2018-03-23T11:18:37.141Z,876.97
2018-03-23T11:19:58.127Z,877.08
2018-03-23T11:20:37.104Z,877.05
2018-03-23T11:21:37.102Z,877.07
2018-03-23T11:22:58.103Z,876.90
2018-03-23T11:23:37.080Z,876.88
2018-03-23T11:24:58.080Z,876.83
2018-03-23T11:25:37.066Z,876.82
2018-03-23T11:26:37.054Z,876.80
2018-03-23T11:27:58.061Z,876.77
2018-03-23T11:28:37.042Z,876.71
2018-03-23T11:29:58.042Z,876.67
2018-03-23T11:30:37.026Z,876.71
2018-03-23T11:31:37.018Z,876.68
2018-03-23T11:32:58.019Z,876.64
2018-03-23T11:33:36.999Z,876.59
2018-03-23T11:34:57.997Z,876.61
2018-03-23T11:35:36.991Z,876.60
2018-03-23T11:36:36.981Z,876.59
2018-03-23T11:37:57.973Z,876.56
2018-03-23T11:38:36.959Z,876.52
2018-03-23T11:39:58.016Z,876.52
2018-03-23T11:40:36.944Z,876.53
2018-03-23T11:41:36.932Z,876.53
2018-03-23T11:42:57.932Z,876.55
2018-03-23T11:43:36.913Z,876.52
2018-03-23T11:44:57.909Z,876.53
2018-03-23T11:45:36.896Z,876.52
2018-03-23T11:46:36.884Z,876.53
2018-03-23T11:47:57.905Z,876.49
2018-03-23T11:48:36.865Z,876.49
2018-03-23T11:49:57.970Z,876.45
2018-03-23T11:50:36.845Z,876.39
2018-03-23T11:51:36.837Z,876.38
2018-03-23T11:52:57.884Z,876.34
2018-03-23T11:53:36.824Z,876.31
2018-03-23T11:54:57.854Z,876.29
2018-03-23T11:55:36.801Z,876.29
2018-03-23T11:56:36.791Z,876.25
2018-03-23T11:57:57.777Z,876.22
2018-03-23T11:58:36.767Z,876.24
2018-03-23T11:59:57.785Z,876.21
2018-03-23T12:00:36.747Z,876.19
2018-03-23T12:01:36.738Z,876.36
2018-03-23T12:02:57.730Z,876.22
2018-03-23T12:03:36.721Z,876.18
2018-03-23T12:04:57.714Z,876.28
2018-03-23T12:05:36.694Z,876.18
2018-03-23T12:06:36.686Z,876.19
2018-03-23T12:07:57.926Z,876.20
2018-03-23T12:08:36.668Z,876.17
2018-03-23T12:09:57.665Z,876.16
2018-03-23T12:10:36.648Z,876.18
2018-03-23T12:11:36.641Z,876.14
2018-03-23T12:12:57.635Z,876.12
2018-03-23T12:13:36.621Z,876.09
2018-03-23T12:14:57.619Z,876.09
2018-03-23T12:15:36.599Z,876.07
2018-03-23T12:16:36.590Z,876.03
2018-03-23T12:17:57.610Z,876.03
2018-03-23T12:18:36.570Z,876.03
2018-03-23T12:19:57.561Z,875.99
2018-03-23T12:20:36.553Z,875.99
2018-03-23T12:21:36.566Z,875.96
2018-03-23T12:22:57.533Z,875.98
2018-03-23T12:23:36.544Z,875.98
2018-03-23T12:24:57.515Z,875.98
2018-03-23T12:25:36.538Z,875.94
2018-03-23T12:26:36.487Z,875.95
2018-03-23T12:27:57.481Z,875.91